Adventure Hornblower — WDA3017 — position and weather

sailwx.info

Track history (hours):
 
Tides and Currents Weather Stations Pressure Air Temp Water Temp Dewpoint Dewpoint Depression Visibility Wind Speed Wind Dir Waves Ship Positions

Adventure Hornblower

Owner: Hornblower Cruises and Events, San Diego, CA. More information available from US FCC via Universal Licensing System and Coast Guard Vessel Documentation Center.

Last reported at 2017-Sep-22 00:33 UTC. Time now 2017-Sep-22 20:38 UTC.
Position N 32°43' W 117°11'.

Length 49 m; draft 1.8 m.

Type: Passenger vessel. MMSI: 366793760.

Date/timePositionNaut miles runAvg speedWind from/ knotsBaromVisibWave heightAir tempDewpointWater temp
2017-Sep-22 00:33N 32°43' W 117°11'0 1.2
2017-Sep-22 00:13N 32°43' W 117°10'1 4.4
2017-Sep-22 00:00N 32°42' W 117°10'1 1.6
2017-Sep-21 23:27N 32°43' W 117°11'0 0.7
2017-Sep-21 22:57N 32°43' W 117°11'3 6.9
2017-Sep-21 22:30N 32°42' W 117°14'3 3.7
2017-Sep-21 21:40N 32°43' W 117°11'210.0
2017-Sep-21 21:30N 32°42' W 117°09'2 2.9
2017-Sep-21 20:56N 32°43' W 117°11'0 1.1
2017-Sep-21 20:31N 32°43' W 117°11'3 6.2
2017-Sep-21 20:00N 32°42' W 117°14'3 5.8
2017-Sep-21 19:27N 32°43' W 117°10'1 2.9
2017-Sep-21 18:57N 32°42' W 117°09'1 2.6
2017-Sep-21 18:27N 32°42' W 117°11'1 1.1
2017-Sep-21 18:00N 32°43' W 117°11'3 6.3
2017-Sep-21 17:31N 32°42' W 117°14'3 6.5
2017-Sep-21 17:00N 32°43' W 117°10'0 0.0
2017-Sep-21 16:30N 32°43' W 117°10'1 0.0
2017-Sep-21 02:07N 32°43' W 117°11'0 1.6
2017-Sep-21 02:00N 32°43' W 117°11'0 0.8
2017-Sep-21 01:31N 32°43' W 117°10'3 6.5
2017-Sep-21 01:00N 32°42' W 117°14'3 5.5
2017-Sep-21 00:25N 32°43' W 117°10'2 4.4
2017-Sep-21 00:00N 32°41' W 117°09'2 3.1
2017-Sep-20 23:28N 32°42' W 117°11'1 1.4
2017-Sep-20 22:52N 32°43' W 117°12'2 6.9
2017-Sep-20 22:30N 32°42' W 117°14'3 4.6
2017-Sep-20 21:48N 32°43' W 117°10'2 6.2
2017-Sep-20 21:30N 32°41' W 117°09'2 2.8
2017-Sep-20 20:56N 32°42' W 117°11'1 1.1
2017-Sep-20 20:29N 32°43' W 117°11'3 6.4
2017-Sep-20 20:00N 32°42' W 117°14'3 5.9
2017-Sep-20 19:27N 32°43' W 117°10'2 3.5
2017-Sep-20 19:00N 32°42' W 117°09'1 1.1
2017-Sep-20 18:29N 32°42' W 117°10'1 2.2
2017-Sep-20 18:00N 32°43' W 117°10'3 6.7
2017-Sep-20 17:30N 32°42' W 117°14'3 6.5
2017-Sep-20 17:00N 32°43' W 117°10'0 0.0
2017-Sep-20 16:23N 32°43' W 117°10'0 0.0
2017-Sep-20 01:41N 32°43' W 117°11'0 1.8
2017-Sep-20 01:28N 32°43' W 117°10'3 7.2
2017-Sep-20 01:00N 32°41' W 117°14'3 6.3
2017-Sep-20 00:29N 32°43' W 117°10'1 2.5
2017-Sep-20 00:00N 32°42' W 117°10'0 0.1
2017-Sep-19 23:30N 32°42' W 117°10'1 2.4
2017-Sep-19 22:59N 32°43' W 117°10'3 7.0
2017-Sep-19 22:30N 32°42' W 117°14'3 5.5
2017-Sep-19 21:54N 32°43' W 117°10'2 4.7
2017-Sep-19 21:30N 32°41' W 117°09'1 2.1
2017-Sep-19 21:01N 32°42' W 117°10'1 1.7
2017-Sep-19 20:28N 32°43' W 117°10'3 7.2
2017-Sep-19 20:00N 32°42' W 117°14'3 6.4
2017-Sep-19 19:28N 32°43' W 117°10'1 3.0
2017-Sep-19 19:00N 32°42' W 117°09'1 2.1
2017-Sep-19 18:23N 32°43' W 117°11'0 1.1
2017-Sep-19 17:59N 32°43' W 117°10'3 7.1
2017-Sep-19 17:30N 32°42' W 117°14'3 6.5
2017-Sep-19 17:00N 32°43' W 117°10'0 0.0
2017-Sep-19 16:24N 32°43' W 117°10'0 0.0
2017-Sep-19 04:56N 32°43' W 117°11'2 4.7
2017-Sep-19 04:25N 32°41' W 117°09'1 1.7
2017-Sep-19 04:00N 32°41' W 117°10'3 5.1
2017-Sep-19 03:28N 32°43' W 117°12'3 5.8
2017-Sep-19 03:00N 32°41' W 117°14'2 3.9
2017-Sep-19 02:30N 32°43' W 117°13'2 1.1
2017-Sep-19 00:39N 32°43' W 117°11'0 1.5
2017-Sep-19 00:25N 32°43' W 117°10'1 3.5
2017-Sep-19 00:00N 32°42' W 117°09'0 0.2
2017-Sep-18 23:31N 32°42' W 117°09'2 2.7
2017-Sep-18 22:56N 32°43' W 117°10'3 7.8
2017-Sep-18 22:31N 32°42' W 117°14'3 4.4
2017-Sep-18 21:46N 32°43' W 117°10'1 5.5
2017-Sep-18 21:31N 32°42' W 117°10'0 0.8
2017-Sep-18 20:59N 32°42' W 117°10'1 2.0
2017-Sep-18 20:29N 32°43' W 117°10'3 6.9
2017-Sep-18 20:01N 32°41' W 117°14'3 6.5
2017-Sep-18 19:30N 32°43' W 117°10'2 3.4
2017-Sep-18 18:58N 32°41' W 117°09'1 1.1
2017-Sep-18 18:30N 32°42' W 117°10'1 2.6
2017-Sep-18 18:00N 32°43' W 117°10'3 6.8
2017-Sep-18 17:30N 32°42' W 117°14'3 6.7
2017-Sep-18 17:01N 32°43' W 117°10'0 0.0
2017-Sep-18 16:29N 32°43' W 117°10'0 0.0
2017-Sep-18 04:52N 32°43' W 117°11'2 4.3
2017-Sep-18 04:29N 32°42' W 117°10'1 1.3
2017-Sep-18 03:52N 32°41' W 117°09'0 1.1
2017-Sep-18 03:30N 32°41' W 117°10'3 5.3
2017-Sep-18 03:00N 32°43' W 117°12'1 1.9
2017-Sep-18 02:30N 32°43' W 117°13'2 0.9
2017-Sep-18 00:38N 32°43' W 117°11'1 1.6
2017-Sep-18 00:10N 32°42' W 117°10'1 8.5
2017-Sep-17 23:59N 32°41' W 117°09'2 2.8
2017-Sep-17 23:25N 32°42' W 117°11'1 1.0
2017-Sep-17 22:54N 32°43' W 117°11'3 7.7
2017-Sep-17 22:30N 32°42' W 117°14'3 6.2
2017-Sep-17 21:58N 32°43' W 117°10'2 3.9
2017-Sep-17 21:30N 32°41' W 117°09'2 3.1
2017-Sep-17 20:53N 32°43' W 117°11'1 1.3
2017-Sep-17 20:29N 32°43' W 117°10'3 7.0
2017-Sep-17 20:00N 32°42' W 117°14'3 6.1
2017-Sep-17 19:27N 32°43' W 117°10'2 3.7
2017-Sep-17 18:59N 32°42' W 117°09'0 0.9
2017-Sep-17 18:30N 32°42' W 117°10'1 2.5
2017-Sep-17 17:58N 32°43' W 117°10'3 7.4
2017-Sep-17 17:30N 32°41' W 117°14'3 3.8
2017-Sep-17 16:37N 32°43' W 117°10'0 0.0
2017-Sep-17 04:37N 32°43' W 117°11'0 3.8
2017-Sep-17 04:30N 32°43' W 117°11'3 5.4
2017-Sep-17 04:00N 32°42' W 117°14'3 5.2
2017-Sep-17 03:30N 32°43' W 117°12'3 5.3
2017-Sep-17 02:57N 32°41' W 117°09'1 1.6
2017-Sep-17 02:28N 32°41' W 117°09'2 2.6
2017-Sep-17 01:46N 32°42' W 117°10'1 0.1
2017-Sep-16 06:45N 32°43' W 117°11'0 0.5
2017-Sep-16 05:54N 32°43' W 117°11'1 2.4
2017-Sep-16 05:31N 32°42' W 117°10'1 1.1
2017-Sep-16 04:58N 32°42' W 117°11'2 5.1
2017-Sep-16 04:30N 32°43' W 117°13'2 1.5
2017-Sep-16 02:55N 32°43' W 117°11'1 3.3
2017-Sep-16 02:30N 32°43' W 117°12'2 3.7
2017-Sep-16 02:00N 32°42' W 117°10'1 3.0
2017-Sep-16 01:30N 32°41' W 117°10'2 2.4
2017-Sep-16 00:38N 32°43' W 117°10'0 0.0
2017-Sep-16 00:26N 32°43' W 117°10'1 0.1
2017-Sep-15 20:56N 32°43' W 117°10'4 8.7
2017-Sep-15 20:30N 32°41' W 117°14'3 6.5
2017-Sep-15 20:00N 32°38' W 117°15'3 6.9
2017-Sep-15 19:30N 32°39' W 117°19'2 4.8
2017-Sep-15 19:00N 32°38' W 117°16'3 6.9
2017-Sep-15 18:31N 32°39' W 117°20'2 4.0
2017-Sep-15 18:00N 32°39' W 117°18'2 4.8
2017-Sep-15 17:30N 32°39' W 117°21'3 6.7
2017-Sep-15 17:00N 32°39' W 117°17'5 9.2
2017-Sep-15 16:30N 32°42' W 117°14'3 0.2
2017-Sep-14 21:45N 32°43' W 117°11'2 8.0
2017-Sep-14 21:30N 32°42' W 117°09'2 4.9
2017-Sep-14 21:00N 32°39' W 117°08'0 0.6
2017-Sep-14 20:27N 32°40' W 117°08'0 0.5
2017-Sep-14 19:59N 32°40' W 117°08'1 1.0
2017-Sep-14 19:24N 32°39' W 117°08'0 0.9
2017-Sep-14 19:00N 32°40' W 117°08'1 2.2
2017-Sep-14 18:30N 32°41' W 117°09'1 2.1
2017-Sep-14 18:01N 32°40' W 117°08'1 1.5
2017-Sep-14 17:30N 32°39' W 117°08'0 0.4
2017-Sep-14 17:00N 32°39' W 117°07'3 6.8
2017-Sep-14 16:30N 32°42' W 117°10'1 0.1
2017-Sep-14 05:13N 32°43' W 117°10'0 0.0
2017-Sep-14 04:48N 32°43' W 117°10'1 3.1
2017-Sep-14 04:31N 32°42' W 117°10'3 5.1
2017-Sep-14 03:53N 32°40' W 117°08'3 6.5
2017-Sep-14 03:24N 32°42' W 117°11'2 5.7
2017-Sep-14 03:01N 32°43' W 117°13'1 1.2
2017-Sep-14 02:31N 32°43' W 117°13'2 1.0
2017-Sep-14 00:31N 32°43' W 117°10'0 1.1
2017-Sep-14 00:29N 32°43' W 117°10'1 1.8
2017-Sep-13 23:59N 32°42' W 117°10'1 2.4
2017-Sep-13 23:24N 32°41' W 117°09'2 3.6
2017-Sep-13 22:52N 32°43' W 117°11'3 8.7
2017-Sep-13 22:30N 32°42' W 117°14'3 5.5
2017-Sep-13 21:54N 32°43' W 117°10'1 3.4
2017-Sep-13 21:29N 32°42' W 117°09'0 0.5
2017-Sep-13 20:59N 32°42' W 117°10'1 2.5
2017-Sep-13 20:29N 32°43' W 117°10'3 7.1
2017-Sep-13 20:00N 32°42' W 117°14'3 5.7
2017-Sep-13 19:25N 32°43' W 117°10'3 5.6
2017-Sep-13 18:54N 32°41' W 117°08'2 4.0
2017-Sep-13 18:26N 32°42' W 117°10'1 2.6
2017-Sep-13 17:59N 32°43' W 117°10'3 7.0
2017-Sep-13 17:30N 32°42' W 117°14'3 6.7
2017-Sep-13 17:00N 32°43' W 117°10'0 0.0
2017-Sep-13 16:29N 32°43' W 117°10'0 0.0
2017-Sep-13 04:53N 32°43' W 117°11'2 5.1
2017-Sep-13 04:29N 32°42' W 117°09'0 0.6
2017-Sep-13 04:00N 32°42' W 117°10'2 4.9
2017-Sep-13 03:30N 32°43' W 117°12'1 1.9
2017-Sep-13 03:00N 32°43' W 117°13'2 0.9
2017-Sep-13 00:33N 32°43' W 117°10'0 5.2
2017-Sep-13 00:30N 32°43' W 117°11'2 3.8
2017-Sep-12 23:59N 32°42' W 117°09'1 2.6
2017-Sep-12 23:27N 32°42' W 117°11'1 1.1
2017-Sep-12 22:56N 32°43' W 117°10'3 7.8
2017-Sep-12 22:30N 32°42' W 117°14'3 6.2
2017-Sep-12 21:58N 32°43' W 117°10'1 3.1
2017-Sep-12 21:30N 32°42' W 117°09'1 2.2
2017-Sep-12 20:55N 32°42' W 117°11'1 1.4
2017-Sep-12 20:30N 32°43' W 117°10'3 6.6
2017-Sep-12 20:00N 32°42' W 117°14'3 4.8
2017-Sep-12 19:19N 32°43' W 117°10'2 7.2
2017-Sep-12 18:58N 32°41' W 117°09'3 5.4
2017-Sep-12 18:30N 32°43' W 117°11'0 1.0
2017-Sep-12 18:00N 32°43' W 117°10'3 6.7
2017-Sep-12 17:30N 32°42' W 117°14'3 5.6
2017-Sep-12 16:55N 32°43' W 117°10'0 0.0
2017-Sep-12 16:30N 32°43' W 117°10'1 0.0
2017-Sep-12 04:59N 32°43' W 117°10'2 3.4
2017-Sep-12 04:29N 32°42' W 117°10'2 3.3
2017-Sep-12 03:58N 32°41' W 117°08'3 6.2
2017-Sep-12 03:30N 32°43' W 117°11'2 5.0
2017-Sep-12 03:00N 32°42' W 117°14'1 2.9
2017-Sep-12 02:30N 32°43' W 117°12'2 2.0
2017-Sep-12 01:42N 32°43' W 117°10'0 0.0
2017-Sep-12 00:41N 32°43' W 117°10'  
Track history (hours):
 
Tides and Currents Weather Stations Pressure Air Temp Water Temp Dewpoint Dewpoint Depression Visibility Wind Speed Wind Dir Waves Ship Positions

Adventure Hornblower

Owner: Hornblower Cruises and Events, San Diego, CA. More information available from US FCC via Universal Licensing System and Coast Guard Vessel Documentation Center.

Last reported at 2017-Sep-22 00:33 UTC. Time now 2017-Sep-22 20:38 UTC.
Position N 32°43' W 117°11'.

Length 49 m; draft 1.8 m.

Type: Passenger vessel. MMSI: 366793760.

Date/timePositionNaut miles runAvg speedWind from/ knotsBaromVisibWave heightAir tempDewpointWater temp
2017-Sep-22 00:33N 32°43' W 117°11'0 1.2
2017-Sep-22 00:13N 32°43' W 117°10'1 4.4
2017-Sep-22 00:00N 32°42' W 117°10'1 1.6
2017-Sep-21 23:27N 32°43' W 117°11'0 0.7
2017-Sep-21 22:57N 32°43' W 117°11'3 6.9
2017-Sep-21 22:30N 32°42' W 117°14'3 3.7
2017-Sep-21 21:40N 32°43' W 117°11'210.0
2017-Sep-21 21:30N 32°42' W 117°09'2 2.9
2017-Sep-21 20:56N 32°43' W 117°11'0 1.1
2017-Sep-21 20:31N 32°43' W 117°11'3 6.2
2017-Sep-21 20:00N 32°42' W 117°14'3 5.8
2017-Sep-21 19:27N 32°43' W 117°10'1 2.9
2017-Sep-21 18:57N 32°42' W 117°09'1 2.6
2017-Sep-21 18:27N 32°42' W 117°11'1 1.1
2017-Sep-21 18:00N 32°43' W 117°11'3 6.3
2017-Sep-21 17:31N 32°42' W 117°14'3 6.5
2017-Sep-21 17:00N 32°43' W 117°10'0 0.0
2017-Sep-21 16:30N 32°43' W 117°10'1 0.0
2017-Sep-21 02:07N 32°43' W 117°11'0 1.6
2017-Sep-21 02:00N 32°43' W 117°11'0 0.8
2017-Sep-21 01:31N 32°43' W 117°10'3 6.5
2017-Sep-21 01:00N 32°42' W 117°14'3 5.5
2017-Sep-21 00:25N 32°43' W 117°10'2 4.4
2017-Sep-21 00:00N 32°41' W 117°09'2 3.1
2017-Sep-20 23:28N 32°42' W 117°11'1 1.4
2017-Sep-20 22:52N 32°43' W 117°12'2 6.9
2017-Sep-20 22:30N 32°42' W 117°14'3 4.6
2017-Sep-20 21:48N 32°43' W 117°10'2 6.2
2017-Sep-20 21:30N 32°41' W 117°09'2 2.8
2017-Sep-20 20:56N 32°42' W 117°11'1 1.1
2017-Sep-20 20:29N 32°43' W 117°11'3 6.4
2017-Sep-20 20:00N 32°42' W 117°14'3 5.9
2017-Sep-20 19:27N 32°43' W 117°10'2 3.5
2017-Sep-20 19:00N 32°42' W 117°09'1 1.1
2017-Sep-20 18:29N 32°42' W 117°10'1 2.2
2017-Sep-20 18:00N 32°43' W 117°10'3 6.7
2017-Sep-20 17:30N 32°42' W 117°14'3 6.5
2017-Sep-20 17:00N 32°43' W 117°10'0 0.0
2017-Sep-20 16:23N 32°43' W 117°10'0 0.0
2017-Sep-20 01:41N 32°43' W 117°11'0 1.8
2017-Sep-20 01:28N 32°43' W 117°10'3 7.2
2017-Sep-20 01:00N 32°41' W 117°14'3 6.3
2017-Sep-20 00:29N 32°43' W 117°10'1 2.5
2017-Sep-20 00:00N 32°42' W 117°10'0 0.1
2017-Sep-19 23:30N 32°42' W 117°10'1 2.4
2017-Sep-19 22:59N 32°43' W 117°10'3 7.0
2017-Sep-19 22:30N 32°42' W 117°14'3 5.5
2017-Sep-19 21:54N 32°43' W 117°10'2 4.7
2017-Sep-19 21:30N 32°41' W 117°09'1 2.1
2017-Sep-19 21:01N 32°42' W 117°10'1 1.7
2017-Sep-19 20:28N 32°43' W 117°10'3 7.2
2017-Sep-19 20:00N 32°42' W 117°14'3 6.4
2017-Sep-19 19:28N 32°43' W 117°10'1 3.0
2017-Sep-19 19:00N 32°42' W 117°09'1 2.1
2017-Sep-19 18:23N 32°43' W 117°11'0 1.1
2017-Sep-19 17:59N 32°43' W 117°10'3 7.1
2017-Sep-19 17:30N 32°42' W 117°14'3 6.5
2017-Sep-19 17:00N 32°43' W 117°10'0 0.0
2017-Sep-19 16:24N 32°43' W 117°10'0 0.0
2017-Sep-19 04:56N 32°43' W 117°11'2 4.7
2017-Sep-19 04:25N 32°41' W 117°09'1 1.7
2017-Sep-19 04:00N 32°41' W 117°10'3 5.1
2017-Sep-19 03:28N 32°43' W 117°12'3 5.8
2017-Sep-19 03:00N 32°41' W 117°14'2 3.9
2017-Sep-19 02:30N 32°43' W 117°13'2 1.1
2017-Sep-19 00:39N 32°43' W 117°11'0 1.5
2017-Sep-19 00:25N 32°43' W 117°10'1 3.5
2017-Sep-19 00:00N 32°42' W 117°09'0 0.2
2017-Sep-18 23:31N 32°42' W 117°09'2 2.7
2017-Sep-18 22:56N 32°43' W 117°10'3 7.8
2017-Sep-18 22:31N 32°42' W 117°14'3 4.4
2017-Sep-18 21:46N 32°43' W 117°10'1 5.5
2017-Sep-18 21:31N 32°42' W 117°10'0 0.8
2017-Sep-18 20:59N 32°42' W 117°10'1 2.0
2017-Sep-18 20:29N 32°43' W 117°10'3 6.9
2017-Sep-18 20:01N 32°41' W 117°14'3 6.5
2017-Sep-18 19:30N 32°43' W 117°10'2 3.4
2017-Sep-18 18:58N 32°41' W 117°09'1 1.1
2017-Sep-18 18:30N 32°42' W 117°10'1 2.6
2017-Sep-18 18:00N 32°43' W 117°10'3 6.8
2017-Sep-18 17:30N 32°42' W 117°14'3 6.7
2017-Sep-18 17:01N 32°43' W 117°10'0 0.0
2017-Sep-18 16:29N 32°43' W 117°10'0 0.0
2017-Sep-18 04:52N 32°43' W 117°11'2 4.3
2017-Sep-18 04:29N 32°42' W 117°10'1 1.3
2017-Sep-18 03:52N 32°41' W 117°09'0 1.1
2017-Sep-18 03:30N 32°41' W 117°10'3 5.3
2017-Sep-18 03:00N 32°43' W 117°12'1 1.9
2017-Sep-18 02:30N 32°43' W 117°13'2 0.9
2017-Sep-18 00:38N 32°43' W 117°11'1 1.6
2017-Sep-18 00:10N 32°42' W 117°10'1 8.5
2017-Sep-17 23:59N 32°41' W 117°09'2 2.8
2017-Sep-17 23:25N 32°42' W 117°11'1 1.0
2017-Sep-17 22:54N 32°43' W 117°11'3 7.7
2017-Sep-17 22:30N 32°42' W 117°14'3 6.2
2017-Sep-17 21:58N 32°43' W 117°10'2 3.9
2017-Sep-17 21:30N 32°41' W 117°09'2 3.1
2017-Sep-17 20:53N 32°43' W 117°11'1 1.3
2017-Sep-17 20:29N 32°43' W 117°10'3 7.0
2017-Sep-17 20:00N 32°42' W 117°14'3 6.1
2017-Sep-17 19:27N 32°43' W 117°10'2 3.7
2017-Sep-17 18:59N 32°42' W 117°09'0 0.9
2017-Sep-17 18:30N 32°42' W 117°10'1 2.5
2017-Sep-17 17:58N 32°43' W 117°10'3 7.4
2017-Sep-17 17:30N 32°41' W 117°14'3 3.8
2017-Sep-17 16:37N 32°43' W 117°10'0 0.0
2017-Sep-17 04:37N 32°43' W 117°11'0 3.8
2017-Sep-17 04:30N 32°43' W 117°11'3 5.4
2017-Sep-17 04:00N 32°42' W 117°14'3 5.2
2017-Sep-17 03:30N 32°43' W 117°12'3 5.3
2017-Sep-17 02:57N 32°41' W 117°09'1 1.6
2017-Sep-17 02:28N 32°41' W 117°09'2 2.6
2017-Sep-17 01:46N 32°42' W 117°10'1 0.1
2017-Sep-16 06:45N 32°43' W 117°11'0 0.5
2017-Sep-16 05:54N 32°43' W 117°11'1 2.4
2017-Sep-16 05:31N 32°42' W 117°10'1 1.1
2017-Sep-16 04:58N 32°42' W 117°11'2 5.1
2017-Sep-16 04:30N 32°43' W 117°13'2 1.5
2017-Sep-16 02:55N 32°43' W 117°11'1 3.3
2017-Sep-16 02:30N 32°43' W 117°12'2 3.7
2017-Sep-16 02:00N 32°42' W 117°10'1 3.0
2017-Sep-16 01:30N 32°41' W 117°10'2 2.4
2017-Sep-16 00:38N 32°43' W 117°10'0 0.0
2017-Sep-16 00:26N 32°43' W 117°10'1 0.1
2017-Sep-15 20:56N 32°43' W 117°10'4 8.7
2017-Sep-15 20:30N 32°41' W 117°14'3 6.5
2017-Sep-15 20:00N 32°38' W 117°15'3 6.9
2017-Sep-15 19:30N 32°39' W 117°19'2 4.8
2017-Sep-15 19:00N 32°38' W 117°16'3 6.9
2017-Sep-15 18:31N 32°39' W 117°20'2 4.0
2017-Sep-15 18:00N 32°39' W 117°18'2 4.8
2017-Sep-15 17:30N 32°39' W 117°21'3 6.7
2017-Sep-15 17:00N 32°39' W 117°17'5 9.2
2017-Sep-15 16:30N 32°42' W 117°14'3 0.2
2017-Sep-14 21:45N 32°43' W 117°11'2 8.0
2017-Sep-14 21:30N 32°42' W 117°09'2 4.9
2017-Sep-14 21:00N 32°39' W 117°08'0 0.6
2017-Sep-14 20:27N 32°40' W 117°08'0 0.5
2017-Sep-14 19:59N 32°40' W 117°08'1 1.0
2017-Sep-14 19:24N 32°39' W 117°08'0 0.9
2017-Sep-14 19:00N 32°40' W 117°08'1 2.2
2017-Sep-14 18:30N 32°41' W 117°09'1 2.1
2017-Sep-14 18:01N 32°40' W 117°08'1 1.5
2017-Sep-14 17:30N 32°39' W 117°08'0 0.4
2017-Sep-14 17:00N 32°39' W 117°07'3 6.8
2017-Sep-14 16:30N 32°42' W 117°10'1 0.1
2017-Sep-14 05:13N 32°43' W 117°10'0 0.0
2017-Sep-14 04:48N 32°43' W 117°10'1 3.1
2017-Sep-14 04:31N 32°42' W 117°10'3 5.1
2017-Sep-14 03:53N 32°40' W 117°08'3 6.5
2017-Sep-14 03:24N 32°42' W 117°11'2 5.7
2017-Sep-14 03:01N 32°43' W 117°13'1 1.2
2017-Sep-14 02:31N 32°43' W 117°13'2 1.0
2017-Sep-14 00:31N 32°43' W 117°10'0 1.1
2017-Sep-14 00:29N 32°43' W 117°10'1 1.8
2017-Sep-13 23:59N 32°42' W 117°10'1 2.4
2017-Sep-13 23:24N 32°41' W 117°09'2 3.6
2017-Sep-13 22:52N 32°43' W 117°11'3 8.7
2017-Sep-13 22:30N 32°42' W 117°14'3 5.5
2017-Sep-13 21:54N 32°43' W 117°10'1 3.4
2017-Sep-13 21:29N 32°42' W 117°09'0 0.5
2017-Sep-13 20:59N 32°42' W 117°10'1 2.5
2017-Sep-13 20:29N 32°43' W 117°10'3 7.1
2017-Sep-13 20:00N 32°42' W 117°14'3 5.7
2017-Sep-13 19:25N 32°43' W 117°10'3 5.6
2017-Sep-13 18:54N 32°41' W 117°08'2 4.0
2017-Sep-13 18:26N 32°42' W 117°10'1 2.6
2017-Sep-13 17:59N 32°43' W 117°10'3 7.0
2017-Sep-13 17:30N 32°42' W 117°14'3 6.7
2017-Sep-13 17:00N 32°43' W 117°10'0 0.0
2017-Sep-13 16:29N 32°43' W 117°10'0 0.0
2017-Sep-13 04:53N 32°43' W 117°11'2 5.1
2017-Sep-13 04:29N 32°42' W 117°09'0 0.6
2017-Sep-13 04:00N 32°42' W 117°10'2 4.9
2017-Sep-13 03:30N 32°43' W 117°12'1 1.9
2017-Sep-13 03:00N 32°43' W 117°13'2 0.9
2017-Sep-13 00:33N 32°43' W 117°10'0 5.2
2017-Sep-13 00:30N 32°43' W 117°11'2 3.8
2017-Sep-12 23:59N 32°42' W 117°09'1 2.6
2017-Sep-12 23:27N 32°42' W 117°11'1 1.1
2017-Sep-12 22:56N 32°43' W 117°10'3 7.8
2017-Sep-12 22:30N 32°42' W 117°14'3 6.2
2017-Sep-12 21:58N 32°43' W 117°10'1 3.1
2017-Sep-12 21:30N 32°42' W 117°09'1 2.2
2017-Sep-12 20:55N 32°42' W 117°11'1 1.4
2017-Sep-12 20:30N 32°43' W 117°10'3 6.6
2017-Sep-12 20:00N 32°42' W 117°14'3 4.8
2017-Sep-12 19:19N 32°43' W 117°10'2 7.2
2017-Sep-12 18:58N 32°41' W 117°09'3 5.4
2017-Sep-12 18:30N 32°43' W 117°11'0 1.0
2017-Sep-12 18:00N 32°43' W 117°10'3 6.7
2017-Sep-12 17:30N 32°42' W 117°14'3 5.6
2017-Sep-12 16:55N 32°43' W 117°10'0 0.0
2017-Sep-12 16:30N 32°43' W 117°10'1 0.0
2017-Sep-12 04:59N 32°43' W 117°10'2 3.4
2017-Sep-12 04:29N 32°42' W 117°10'2 3.3
2017-Sep-12 03:58N 32°41' W 117°08'3 6.2
2017-Sep-12 03:30N 32°43' W 117°11'2 5.0
2017-Sep-12 03:00N 32°42' W 117°14'1 2.9
2017-Sep-12 02:30N 32°43' W 117°12'2 2.0
2017-Sep-12 01:42N 32°43' W 117°10'0 0.0
2017-Sep-12 00:41N 32°43' W 117°10'  

Dump ship's entire track history